sensor_id;sensor_type;location;lat;lon;timestamp;temperature;humidity
30148;DHT22;16960;49.404;8.248;2023-04-16T00:01:55;20.60;38.80
30148;DHT22;16960;49.404;8.248;2023-04-16T00:04:22;20.60;38.80
30148;DHT22;16960;49.404;8.248;2023-04-16T00:06:49;20.60;38.90
30148;DHT22;16960;49.404;8.248;2023-04-16T00:09:16;20.50;38.90
30148;DHT22;16960;49.404;8.248;2023-04-16T00:11:43;20.60;38.90
30148;DHT22;16960;49.404;8.248;2023-04-16T00:14:11;20.60;38.90
30148;DHT22;16960;49.404;8.248;2023-04-16T00:16:38;20.50;39.10
30148;DHT22;16960;49.404;8.248;2023-04-16T00:19:05;20.60;39.10
30148;DHT22;16960;49.404;8.248;2023-04-16T00:21:32;20.60;39.10
30148;DHT22;16960;49.404;8.248;2023-04-16T00:23:59;20.50;39.10
30148;DHT22;16960;49.404;8.248;2023-04-16T00:26:26;20.50;39.10
30148;DHT22;16960;49.404;8.248;2023-04-16T00:28:52;20.50;39.10
30148;DHT22;16960;49.404;8.248;2023-04-16T00:31:26;20.60;39.00
30148;DHT22;16960;49.404;8.248;2023-04-16T00:33:54;20.50;39.10
30148;DHT22;16960;49.404;8.248;2023-04-16T00:36:22;20.50;39.00
30148;DHT22;16960;49.404;8.248;2023-04-16T00:38:49;20.50;39.00
30148;DHT22;16960;49.404;8.248;2023-04-16T00:41:16;20.50;39.50
30148;DHT22;16960;49.404;8.248;2023-04-16T00:43:43;20.50;38.90
30148;DHT22;16960;49.404;8.248;2023-04-16T00:46:10;20.50;38.90
30148;DHT22;16960;49.404;8.248;2023-04-16T00:48:39;20.50;38.90
30148;DHT22;16960;49.404;8.248;2023-04-16T00:51:07;20.50;39.50
30148;DHT22;16960;49.404;8.248;2023-04-16T00:53:35;20.50;38.90
30148;DHT22;16960;49.404;8.248;2023-04-16T00:56:03;20.50;38.80
30148;DHT22;16960;49.404;8.248;2023-04-16T00:58:30;20.50;38.80
30148;DHT22;16960;49.404;8.248;2023-04-16T01:00:58;20.50;38.80
30148;DHT22;16960;49.404;8.248;2023-04-16T01:03:36;20.50;38.80
30148;DHT22;16960;49.404;8.248;2023-04-16T01:06:05;20.50;38.80
30148;DHT22;16960;49.404;8.248;2023-04-16T01:08:32;20.50;38.80
30148;DHT22;16960;49.404;8.248;2023-04-16T01:10:59;20.50;38.80
30148;DHT22;16960;49.404;8.248;2023-04-16T01:13:26;20.50;38.80
30148;DHT22;16960;49.404;8.248;2023-04-16T01:15:53;20.50;38.80
30148;DHT22;16960;49.404;8.248;2023-04-16T01:18:20;20.50;38.80
30148;DHT22;16960;49.404;8.248;2023-04-16T01:20:49;20.50;38.80
30148;DHT22;16960;49.404;8.248;2023-04-16T01:23:16;20.50;39.30
30148;DHT22;16960;49.404;8.248;2023-04-16T01:25:44;20.50;38.80
30148;DHT22;16960;49.404;8.248;2023-04-16T01:28:11;20.50;38.80
30148;DHT22;16960;49.404;8.248;2023-04-16T01:30:38;20.50;38.80
30148;DHT22;16960;49.404;8.248;2023-04-16T01:33:05;20.40;38.80
30148;DHT22;16960;49.404;8.248;2023-04-16T01:35:32;20.50;38.90
30148;DHT22;16960;49.404;8.248;2023-04-16T01:38:01;20.50;38.90
30148;DHT22;16960;49.404;8.248;2023-04-16T01:40:28;20.40;38.90
30148;DHT22;16960;49.404;8.248;2023-04-16T01:42:55;20.40;38.80
30148;DHT22;16960;49.404;8.248;2023-04-16T01:45:22;20.40;38.80
30148;DHT22;16960;49.404;8.248;2023-04-16T01:47:49;20.40;38.90
30148;DHT22;16960;49.404;8.248;2023-04-16T01:50:16;20.40;38.90
30148;DHT22;16960;49.404;8.248;2023-04-16T01:52:43;20.40;38.80
30148;DHT22;16960;49.404;8.248;2023-04-16T01:55:12;20.40;38.90
30148;DHT22;16960;49.404;8.248;2023-04-16T01:57:39;20.40;38.90
30148;DHT22;16960;49.404;8.248;2023-04-16T02:00:07;20.40;38.90
30148;DHT22;16960;49.404;8.248;2023-04-16T02:02:34;20.40;39.00
30148;DHT22;16960;49.404;8.248;2023-04-16T02:05:01;20.40;38.90
30148;DHT22;16960;49.404;8.248;2023-04-16T02:07:28;20.40;38.90
30148;DHT22;16960;49.404;8.248;2023-04-16T02:09:57;20.40;38.90
30148;DHT22;16960;49.404;8.248;2023-04-16T02:12:25;20.40;38.90
30148;DHT22;16960;49.404;8.248;2023-04-16T02:14:52;20.40;38.90
30148;DHT22;16960;49.404;8.248;2023-04-16T02:17:19;20.40;38.90
30148;DHT22;16960;49.404;8.248;2023-04-16T02:19:46;20.40;38.80
30148;DHT22;16960;49.404;8.248;2023-04-16T02:22:13;20.40;38.90
30148;DHT22;16960;49.404;8.248;2023-04-16T02:24:40;20.30;38.80
30148;DHT22;16960;49.404;8.248;2023-04-16T02:27:07;20.40;38.80
30148;DHT22;16960;49.404;8.248;2023-04-16T02:29:35;20.30;38.80
30148;DHT22;16960;49.404;8.248;2023-04-16T02:32:03;20.30;38.80
30148;DHT22;16960;49.404;8.248;2023-04-16T02:34:29;20.30;38.90
30148;DHT22;16960;49.404;8.248;2023-04-16T02:36:58;20.30;38.90
30148;DHT22;16960;49.404;8.248;2023-04-16T02:39:25;20.30;38.90
30148;DHT22;16960;49.404;8.248;2023-04-16T02:41:51;20.30;38.90
30148;DHT22;16960;49.404;8.248;2023-04-16T02:44:18;20.30;38.80
30148;DHT22;16960;49.404;8.248;2023-04-16T02:46:47;20.30;38.80
30148;DHT22;16960;49.404;8.248;2023-04-16T02:49:14;20.30;38.80
30148;DHT22;16960;49.404;8.248;2023-04-16T02:51:41;20.30;38.90
30148;DHT22;16960;49.404;8.248;2023-04-16T02:54:08;20.30;38.90
30148;DHT22;16960;49.404;8.248;2023-04-16T02:56:35;20.30;38.90
30148;DHT22;16960;49.404;8.248;2023-04-16T02:59:01;20.30;38.80
30148;DHT22;16960;49.404;8.248;2023-04-16T03:01:28;20.30;38.90
30148;DHT22;16960;49.404;8.248;2023-04-16T03:03:57;20.30;38.80
30148;DHT22;16960;49.404;8.248;2023-04-16T03:06:23;20.30;38.90
30148;DHT22;16960;49.404;8.248;2023-04-16T03:08:50;20.30;38.80
30148;DHT22;16960;49.404;8.248;2023-04-16T03:11:17;20.30;38.80
30148;DHT22;16960;49.404;8.248;2023-04-16T03:13:45;20.30;38.80
30148;DHT22;16960;49.404;8.248;2023-04-16T03:16:12;20.30;38.80
30148;DHT22;16960;49.404;8.248;2023-04-16T03:18:38;20.30;38.80
30148;DHT22;16960;49.404;8.248;2023-04-16T03:21:07;20.30;38.80
30148;DHT22;16960;49.404;8.248;2023-04-16T03:23:34;20.20;38.70
30148;DHT22;16960;49.404;8.248;2023-04-16T03:26:01;20.30;38.80
30148;DHT22;16960;49.404;8.248;2023-04-16T03:28:28;20.30;38.80
30148;DHT22;16960;49.404;8.248;2023-04-16T03:30:55;20.20;38.80
30148;DHT22;16960;49.404;8.248;2023-04-16T03:33:22;20.30;38.80
30148;DHT22;16960;49.404;8.248;2023-04-16T03:35:54;20.30;38.90
30148;DHT22;16960;49.404;8.248;2023-04-16T03:38:23;20.30;38.80
30148;DHT22;16960;49.404;8.248;2023-04-16T03:40:51;20.30;38.80
30148;DHT22;16960;49.404;8.248;2023-04-16T03:43:18;20.30;38.80
30148;DHT22;16960;49.404;8.248;2023-04-16T03:45:45;20.30;38.80
30148;DHT22;16960;49.404;8.248;2023-04-16T03:48:12;20.30;38.80
30148;DHT22;16960;49.404;8.248;2023-04-16T03:50:39;20.20;38.80
30148;DHT22;16960;49.404;8.248;2023-04-16T03:53:06;20.20;38.80
30148;DHT22;16960;49.404;8.248;2023-04-16T03:55:35;20.20;38.80
30148;DHT22;16960;49.404;8.248;2023-04-16T03:58:02;20.20;38.80
30148;DHT22;16960;49.404;8.248;2023-04-16T04:00:29;20.20;38.70
30148;DHT22;16960;49.404;8.248;2023-04-16T04:02:56;20.20;38.70
30148;DHT22;16960;49.404;8.248;2023-04-16T04:05:23;20.20;38.80
30148;DHT22;16960;49.404;8.248;2023-04-16T04:07:50;20.20;38.70
30148;DHT22;16960;49.404;8.248;2023-04-16T04:10:17;20.20;38.70
30148;DHT22;16960;49.404;8.248;2023-04-16T04:12:45;20.20;38.70
30148;DHT22;16960;49.404;8.248;2023-04-16T04:15:12;20.20;38.70
30148;DHT22;16960;49.404;8.248;2023-04-16T04:17:39;20.20;38.70
30148;DHT22;16960;49.404;8.248;2023-04-16T04:20:07;20.20;38.70
30148;DHT22;16960;49.404;8.248;2023-04-16T04:22:34;20.20;38.80
30148;DHT22;16960;49.404;8.248;2023-04-16T04:25:01;20.10;38.80
30148;DHT22;16960;49.404;8.248;2023-04-16T04:27:28;20.10;38.80
30148;DHT22;16960;49.404;8.248;2023-04-16T04:29:56;20.20;38.90
30148;DHT22;16960;49.404;8.248;2023-04-16T04:32:23;20.20;38.90
30148;DHT22;16960;49.404;8.248;2023-04-16T04:34:51;20.20;38.90
30148;DHT22;16960;49.404;8.248;2023-04-16T04:37:18;20.10;38.90
30148;DHT22;16960;49.404;8.248;2023-04-16T04:39:45;20.10;38.90
30148;DHT22;16960;49.404;8.248;2023-04-16T04:42:12;20.10;38.90
30148;DHT22;16960;49.404;8.248;2023-04-16T04:44:38;20.20;38.90
30148;DHT22;16960;49.404;8.248;2023-04-16T04:47:07;20.20;38.90
30148;DHT22;16960;49.404;8.248;2023-04-16T04:49:34;20.20;38.80
30148;DHT22;16960;49.404;8.248;2023-04-16T04:52:01;20.30;38.80
30148;DHT22;16960;49.404;8.248;2023-04-16T04:54:29;20.30;38.80
30148;DHT22;16960;49.404;8.248;2023-04-16T04:56:56;20.30;38.70
30148;DHT22;16960;49.404;8.248;2023-04-16T04:59:23;20.30;38.70
30148;DHT22;16960;49.404;8.248;2023-04-16T05:01:50;20.40;38.60
30148;DHT22;16960;49.404;8.248;2023-04-16T05:04:19;20.40;38.60
30148;DHT22;16960;49.404;8.248;2023-04-16T05:06:46;20.40;38.60
30148;DHT22;16960;49.404;8.248;2023-04-16T05:09:12;20.40;38.50
30148;DHT22;16960;49.404;8.248;2023-04-16T05:11:40;20.40;38.60
30148;DHT22;16960;49.404;8.248;2023-04-16T05:14:08;20.40;38.60
30148;DHT22;16960;49.404;8.248;2023-04-16T05:16:35;20.50;38.70
30148;DHT22;16960;49.404;8.248;2023-04-16T05:19:02;20.50;38.70
30148;DHT22;16960;49.404;8.248;2023-04-16T05:21:31;20.50;38.70
30148;DHT22;16960;49.404;8.248;2023-04-16T05:23:58;20.50;38.70
30148;DHT22;16960;49.404;8.248;2023-04-16T05:26:25;20.50;38.70
30148;DHT22;16960;49.404;8.248;2023-04-16T05:28:52;20.50;38.70
30148;DHT22;16960;49.404;8.248;2023-04-16T05:31:19;20.50;38.70
30148;DHT22;16960;49.404;8.248;2023-04-16T05:33:46;20.50;38.70
30148;DHT22;16960;49.404;8.248;2023-04-16T05:36:13;20.50;38.60
30148;DHT22;16960;49.404;8.248;2023-04-16T05:38:41;20.50;38.70
30148;DHT22;16960;49.404;8.248;2023-04-16T05:41:08;20.50;38.70
30148;DHT22;16960;49.404;8.248;2023-04-16T05:43:35;20.50;38.70
30148;DHT22;16960;49.404;8.248;2023-04-16T05:46:02;20.50;38.70
30148;DHT22;16960;49.404;8.248;2023-04-16T05:48:29;20.50;38.70
30148;DHT22;16960;49.404;8.248;2023-04-16T05:50:55;20.50;38.80
30148;DHT22;16960;49.404;8.248;2023-04-16T05:53:22;20.50;38.70
30148;DHT22;16960;49.404;8.248;2023-04-16T05:55:51;20.50;38.70
30148;DHT22;16960;49.404;8.248;2023-04-16T05:58:18;20.50;38.80
30148;DHT22;16960;49.404;8.248;2023-04-16T06:00:45;20.60;38.70
30148;DHT22;16960;49.404;8.248;2023-04-16T06:03:12;20.50;38.70
30148;DHT22;16960;49.404;8.248;2023-04-16T06:05:39;20.60;38.70
30148;DHT22;16960;49.404;8.248;2023-04-16T06:08:06;20.60;38.70
30148;DHT22;16960;49.404;8.248;2023-04-16T06:10:32;20.60;38.70
30148;DHT22;16960;49.404;8.248;2023-04-16T06:13:01;20.60;38.70
30148;DHT22;16960;49.404;8.248;2023-04-16T06:15:28;20.60;38.60
30148;DHT22;16960;49.404;8.248;2023-04-16T06:17:55;20.70;38.70
30148;DHT22;16960;49.404;8.248;2023-04-16T06:20:22;20.60;38.60
30148;DHT22;16960;49.404;8.248;2023-04-16T06:22:49;20.60;38.60
30148;DHT22;16960;49.404;8.248;2023-04-16T06:25:16;20.60;38.60
30148;DHT22;16960;49.404;8.248;2023-04-16T06:27:43;20.60;38.60
30148;DHT22;16960;49.404;8.248;2023-04-16T06:30:13;20.70;38.70
30148;DHT22;16960;49.404;8.248;2023-04-16T06:32:41;20.70;38.70
30148;DHT22;16960;49.404;8.248;2023-04-16T06:35:09;20.70;38.70
30148;DHT22;16960;49.404;8.248;2023-04-16T06:37:36;20.70;38.70
30148;DHT22;16960;49.404;8.248;2023-04-16T06:40:03;20.60;38.60
30148;DHT22;16960;49.404;8.248;2023-04-16T06:42:30;20.60;38.60
30148;DHT22;16960;49.404;8.248;2023-04-16T06:44:57;20.60;38.70
30148;DHT22;16960;49.404;8.248;2023-04-16T06:47:25;20.60;38.70
30148;DHT22;16960;49.404;8.248;2023-04-16T06:49:52;20.60;38.70
30148;DHT22;16960;49.404;8.248;2023-04-16T06:52:19;20.70;38.80
30148;DHT22;16960;49.404;8.248;2023-04-16T06:54:47;20.60;38.70
30148;DHT22;16960;49.404;8.248;2023-04-16T06:57:14;20.70;38.80
30148;DHT22;16960;49.404;8.248;2023-04-16T06:59:41;20.60;38.80
30148;DHT22;16960;49.404;8.248;2023-04-16T07:02:09;20.70;39.10
30148;DHT22;16960;49.404;8.248;2023-04-16T07:04:37;20.70;39.10
30148;DHT22;16960;49.404;8.248;2023-04-16T07:07:04;20.70;39.00
30148;DHT22;16960;49.404;8.248;2023-04-16T07:09:31;20.70;39.00
30148;DHT22;16960;49.404;8.248;2023-04-16T07:11:58;20.80;39.00
30148;DHT22;16960;49.404;8.248;2023-04-16T07:14:24;20.70;38.90
30148;DHT22;16960;49.404;8.248;2023-04-16T07:16:51;20.80;38.90
30148;DHT22;16960;49.404;8.248;2023-04-16T07:19:18;20.80;38.90
30148;DHT22;16960;49.404;8.248;2023-04-16T07:21:47;20.80;38.90
30148;DHT22;16960;49.404;8.248;2023-04-16T07:24:14;20.80;38.80
30148;DHT22;16960;49.404;8.248;2023-04-16T07:26:41;20.80;38.80
30148;DHT22;16960;49.404;8.248;2023-04-16T07:29:08;20.80;38.70
30148;DHT22;16960;49.404;8.248;2023-04-16T07:31:35;20.80;38.70
30148;DHT22;16960;49.404;8.248;2023-04-16T07:34:02;20.90;38.70
30148;DHT22;16960;49.404;8.248;2023-04-16T07:36:29;20.90;38.70
30148;DHT22;16960;49.404;8.248;2023-04-16T07:38:57;20.90;38.70
30148;DHT22;16960;49.404;8.248;2023-04-16T07:41:24;20.90;38.60
30148;DHT22;16960;49.404;8.248;2023-04-16T07:43:51;20.90;38.60
30148;DHT22;16960;49.404;8.248;2023-04-16T07:46:18;20.90;38.60
30148;DHT22;16960;49.404;8.248;2023-04-16T07:48:46;20.90;38.50
30148;DHT22;16960;49.404;8.248;2023-04-16T07:51:13;20.90;38.50
30148;DHT22;16960;49.404;8.248;2023-04-16T07:53:40;20.90;38.70
30148;DHT22;16960;49.404;8.248;2023-04-16T07:56:09;20.90;38.60
30148;DHT22;16960;49.404;8.248;2023-04-16T07:58:36;21.00;38.60
30148;DHT22;16960;49.404;8.248;2023-04-16T08:01:03;21.00;38.50
30148;DHT22;16960;49.404;8.248;2023-04-16T08:03:30;21.00;38.50
30148;DHT22;16960;49.404;8.248;2023-04-16T08:05:57;21.00;38.60
30148;DHT22;16960;49.404;8.248;2023-04-16T08:08:24;21.00;38.60
30148;DHT22;16960;49.404;8.248;2023-04-16T08:10:52;21.00;38.80
30148;DHT22;16960;49.404;8.248;2023-04-16T08:13:22;21.00;38.70
30148;DHT22;16960;49.404;8.248;2023-04-16T08:15:49;21.00;38.50
30148;DHT22;16960;49.404;8.248;2023-04-16T08:18:16;21.10;38.50
30148;DHT22;16960;49.404;8.248;2023-04-16T08:20:43;21.10;38.40
30148;DHT22;16960;49.404;8.248;2023-04-16T08:23:10;21.10;38.50
30148;DHT22;16960;49.404;8.248;2023-04-16T08:25:37;21.10;38.50
30148;DHT22;16960;49.404;8.248;2023-04-16T08:28:04;21.20;38.50
30148;DHT22;16960;49.404;8.248;2023-04-16T08:30:32;21.20;38.60
30148;DHT22;16960;49.404;8.248;2023-04-16T08:32:59;21.20;38.50
30148;DHT22;16960;49.404;8.248;2023-04-16T08:35:26;21.30;38.50
30148;DHT22;16960;49.404;8.248;2023-04-16T08:37:53;21.30;38.40
30148;DHT22;16960;49.404;8.248;2023-04-16T08:40:23;21.30;38.40
30148;DHT22;16960;49.404;8.248;2023-04-16T08:42:53;21.30;38.40
30148;DHT22;16960;49.404;8.248;2023-04-16T08:45:20;21.40;38.30
30148;DHT22;16960;49.404;8.248;2023-04-16T08:47:49;21.40;38.20
30148;DHT22;16960;49.404;8.248;2023-04-16T08:50:19;21.40;38.10
30148;DHT22;16960;49.404;8.248;2023-04-16T08:52:50;21.40;38.10
30148;DHT22;16960;49.404;8.248;2023-04-16T08:55:18;21.50;38.10
30148;DHT22;16960;49.404;8.248;2023-04-16T08:57:49;21.50;38.10
30148;DHT22;16960;49.404;8.248;2023-04-16T09:00:18;21.50;38.10
30148;DHT22;16960;49.404;8.248;2023-04-16T09:02:46;21.50;38.10
30148;DHT22;16960;49.404;8.248;2023-04-16T09:05:15;21.50;38.10
30148;DHT22;16960;49.404;8.248;2023-04-16T09:07:44;21.60;38.00
30148;DHT22;16960;49.404;8.248;2023-04-16T09:10:11;21.60;38.00
30148;DHT22;16960;49.404;8.248;2023-04-16T09:12:40;21.60;38.00
30148;DHT22;16960;49.404;8.248;2023-04-16T09:15:09;21.70;38.00
30148;DHT22;16960;49.404;8.248;2023-04-16T09:17:36;21.70;37.90
30148;DHT22;16960;49.404;8.248;2023-04-16T09:20:04;21.70;37.90
30148;DHT22;16960;49.404;8.248;2023-04-16T09:22:35;21.70;37.80
30148;DHT22;16960;49.404;8.248;2023-04-16T09:25:02;21.80;37.80
30148;DHT22;16960;49.404;8.248;2023-04-16T09:27:29;21.80;38.10
30148;DHT22;16960;49.404;8.248;2023-04-16T09:29:56;21.70;37.90
30148;DHT22;16960;49.404;8.248;2023-04-16T09:32:25;21.80;37.90
30148;DHT22;16960;49.404;8.248;2023-04-16T09:34:54;21.70;37.90
30148;DHT22;16960;49.404;8.248;2023-04-16T09:37:22;21.70;37.90
30148;DHT22;16960;49.404;8.248;2023-04-16T09:39:55;21.70;37.90
30148;DHT22;16960;49.404;8.248;2023-04-16T09:42:24;21.70;38.50
30148;DHT22;16960;49.404;8.248;2023-04-16T09:44:52;21.60;37.80
30148;DHT22;16960;49.404;8.248;2023-04-16T09:47:19;21.60;37.90
30148;DHT22;16960;49.404;8.248;2023-04-16T09:49:47;21.60;37.90
30148;DHT22;16960;49.404;8.248;2023-04-16T09:52:14;21.60;37.90
30148;DHT22;16960;49.404;8.248;2023-04-16T09:54:49;21.60;37.90
30148;DHT22;16960;49.404;8.248;2023-04-16T09:57:21;21.60;37.90
30148;DHT22;16960;49.404;8.248;2023-04-16T09:59:51;21.60;37.90
30148;DHT22;16960;49.404;8.248;2023-04-16T10:02:18;21.60;37.90
30148;DHT22;16960;49.404;8.248;2023-04-16T10:04:48;21.60;37.90
30148;DHT22;16960;49.404;8.248;2023-04-16T10:07:16;21.60;37.90
30148;DHT22;16960;49.404;8.248;2023-04-16T10:09:43;21.60;37.90
30148;DHT22;16960;49.404;8.248;2023-04-16T10:12:11;21.50;37.90
30148;DHT22;16960;49.404;8.248;2023-04-16T10:14:40;21.50;37.90
30148;DHT22;16960;49.404;8.248;2023-04-16T10:17:08;21.60;37.90
30148;DHT22;16960;49.404;8.248;2023-04-16T10:19:35;21.50;37.90
30148;DHT22;16960;49.404;8.248;2023-04-16T10:22:02;21.60;38.50
30148;DHT22;16960;49.404;8.248;2023-04-16T10:24:31;21.60;37.90
30148;DHT22;16960;49.404;8.248;2023-04-16T10:26:59;21.50;37.90
30148;DHT22;16960;49.404;8.248;2023-04-16T10:29:28;21.50;37.90
30148;DHT22;16960;49.404;8.248;2023-04-16T10:31:57;21.50;37.90
30148;DHT22;16960;49.404;8.248;2023-04-16T10:34:24;21.50;37.90
30148;DHT22;16960;49.404;8.248;2023-04-16T10:36:53;21.50;37.90
30148;DHT22;16960;49.404;8.248;2023-04-16T10:39:21;21.60;38.00
30148;DHT22;16960;49.404;8.248;2023-04-16T10:41:49;21.50;38.00
30148;DHT22;16960;49.404;8.248;2023-04-16T10:44:17;21.50;38.00
30148;DHT22;16960;49.404;8.248;2023-04-16T10:46:46;21.50;38.00
30148;DHT22;16960;49.404;8.248;2023-04-16T10:49:17;21.50;38.00
30148;DHT22;16960;49.404;8.248;2023-04-16T10:51:55;21.50;38.00
30148;DHT22;16960;49.404;8.248;2023-04-16T10:54:23;21.50;38.00
30148;DHT22;16960;49.404;8.248;2023-04-16T10:56:52;21.50;38.00
30148;DHT22;16960;49.404;8.248;2023-04-16T10:59:20;21.50;38.20
30148;DHT22;16960;49.404;8.248;2023-04-16T11:01:49;21.50;38.10
30148;DHT22;16960;49.404;8.248;2023-04-16T11:04:33;21.50;38.10
30148;DHT22;16960;49.404;8.248;2023-04-16T11:07:05;21.50;38.00
30148;DHT22;16960;49.404;8.248;2023-04-16T11:09:44;21.50;38.10
30148;DHT22;16960;49.404;8.248;2023-04-16T11:12:13;21.40;38.00
30148;DHT22;16960;49.404;8.248;2023-04-16T11:14:41;21.50;38.10
30148;DHT22;16960;49.404;8.248;2023-04-16T11:17:08;21.50;38.10
30148;DHT22;16960;49.404;8.248;2023-04-16T11:19:37;21.40;38.10
30148;DHT22;16960;49.404;8.248;2023-04-16T11:22:04;21.50;38.20
30148;DHT22;16960;49.404;8.248;2023-04-16T11:24:31;21.40;38.20
30148;DHT22;16960;49.404;8.248;2023-04-16T11:26:58;21.40;38.20
30148;DHT22;16960;49.404;8.248;2023-04-16T11:29:26;21.50;38.30
30148;DHT22;16960;49.404;8.248;2023-04-16T11:31:53;21.40;38.20
30148;DHT22;16960;49.404;8.248;2023-04-16T11:34:20;21.40;38.20
30148;DHT22;16960;49.404;8.248;2023-04-16T11:36:50;21.40;38.20
30148;DHT22;16960;49.404;8.248;2023-04-16T11:39:17;21.40;38.20
30148;DHT22;16960;49.404;8.248;2023-04-16T11:41:45;21.40;38.20
30148;DHT22;16960;49.404;8.248;2023-04-16T11:44:19;21.40;38.20
30148;DHT22;16960;49.404;8.248;2023-04-16T11:46:47;21.40;38.20
30148;DHT22;16960;49.404;8.248;2023-04-16T11:49:14;21.40;38.20
30148;DHT22;16960;49.404;8.248;2023-04-16T11:51:42;21.40;38.30
30148;DHT22;16960;49.404;8.248;2023-04-16T11:54:17;21.40;38.80
30148;DHT22;16960;49.404;8.248;2023-04-16T11:56:46;21.40;38.30
30148;DHT22;16960;49.404;8.248;2023-04-16T11:59:14;21.40;38.30
30148;DHT22;16960;49.404;8.248;2023-04-16T12:01:44;21.40;38.30
30148;DHT22;16960;49.404;8.248;2023-04-16T12:04:12;21.40;38.30
30148;DHT22;16960;49.404;8.248;2023-04-16T12:06:40;21.40;38.30
30148;DHT22;16960;49.404;8.248;2023-04-16T12:09:24;21.40;38.40
30148;DHT22;16960;49.404;8.248;2023-04-16T12:11:52;21.40;38.50
30148;DHT22;16960;49.404;8.248;2023-04-16T12:14:19;21.40;38.40
30148;DHT22;16960;49.404;8.248;2023-04-16T12:16:46;21.40;38.60
30148;DHT22;16960;49.404;8.248;2023-04-16T12:19:13;21.40;38.50
30148;DHT22;16960;49.404;8.248;2023-04-16T12:21:41;21.50;38.50
30148;DHT22;16960;49.404;8.248;2023-04-16T12:24:10;21.50;38.50
30148;DHT22;16960;49.404;8.248;2023-04-16T12:26:44;21.50;38.40
30148;DHT22;16960;49.404;8.248;2023-04-16T12:29:17;21.60;38.40
30148;DHT22;16960;49.404;8.248;2023-04-16T12:31:44;21.60;38.30
30148;DHT22;16960;49.404;8.248;2023-04-16T12:34:11;21.60;38.30
30148;DHT22;16960;49.404;8.248;2023-04-16T12:36:39;21.60;38.30
30148;DHT22;16960;49.404;8.248;2023-04-16T12:39:06;21.70;38.30
30148;DHT22;16960;49.404;8.248;2023-04-16T12:41:36;21.70;38.20
30148;DHT22;16960;49.404;8.248;2023-04-16T12:44:07;21.70;38.20
30148;DHT22;16960;49.404;8.248;2023-04-16T12:46:37;21.70;38.10
30148;DHT22;16960;49.404;8.248;2023-04-16T12:49:04;21.80;38.10
30148;DHT22;16960;49.404;8.248;2023-04-16T12:51:32;21.80;38.10
30148;DHT22;16960;49.404;8.248;2023-04-16T12:54:01;21.80;38.10
30148;DHT22;16960;49.404;8.248;2023-04-16T12:56:28;21.80;38.10
30148;DHT22;16960;49.404;8.248;2023-04-16T12:58:56;21.80;38.10
30148;DHT22;16960;49.404;8.248;2023-04-16T13:01:24;21.80;38.10
30148;DHT22;16960;49.404;8.248;2023-04-16T13:03:51;21.80;38.00
30148;DHT22;16960;49.404;8.248;2023-04-16T13:06:19;21.80;38.10
30148;DHT22;16960;49.404;8.248;2023-04-16T13:08:46;21.80;38.00
30148;DHT22;16960;49.404;8.248;2023-04-16T13:11:13;21.80;38.10
30148;DHT22;16960;49.404;8.248;2023-04-16T13:13:40;21.90;38.70
30148;DHT22;16960;49.404;8.248;2023-04-16T13:16:07;21.80;38.10
30148;DHT22;16960;49.404;8.248;2023-04-16T13:18:36;21.90;38.10
30148;DHT22;16960;49.404;8.248;2023-04-16T13:21:03;21.80;38.10
30148;DHT22;16960;49.404;8.248;2023-04-16T13:23:30;21.80;38.10
30148;DHT22;16960;49.404;8.248;2023-04-16T13:25:57;21.80;38.10
30148;DHT22;16960;49.404;8.248;2023-04-16T13:28:24;21.70;38.10
30148;DHT22;16960;49.404;8.248;2023-04-16T13:30:51;21.70;38.10
30148;DHT22;16960;49.404;8.248;2023-04-16T13:33:18;21.70;38.10
30148;DHT22;16960;49.404;8.248;2023-04-16T13:35:47;21.70;38.10
30148;DHT22;16960;49.404;8.248;2023-04-16T13:38:15;21.70;38.10
30148;DHT22;16960;49.404;8.248;2023-04-16T13:40:42;21.70;38.10
30148;DHT22;16960;49.404;8.248;2023-04-16T13:43:09;21.70;38.10
30148;DHT22;16960;49.404;8.248;2023-04-16T13:45:36;21.70;38.20
30148;DHT22;16960;49.404;8.248;2023-04-16T13:48:04;21.70;38.20
30148;DHT22;16960;49.404;8.248;2023-04-16T13:50:31;21.70;38.20
30148;DHT22;16960;49.404;8.248;2023-04-16T13:52:59;21.70;38.30
30148;DHT22;16960;49.404;8.248;2023-04-16T13:55:26;21.70;38.20
30148;DHT22;16960;49.404;8.248;2023-04-16T13:57:53;21.70;38.30
30148;DHT22;16960;49.404;8.248;2023-04-16T14:00:21;21.70;38.20
30148;DHT22;16960;49.404;8.248;2023-04-16T14:02:48;21.70;38.20
30148;DHT22;16960;49.404;8.248;2023-04-16T14:05:15;21.70;38.20
30148;DHT22;16960;49.404;8.248;2023-04-16T14:07:42;21.70;38.20
30148;DHT22;16960;49.404;8.248;2023-04-16T14:10:10;21.70;38.10
30148;DHT22;16960;49.404;8.248;2023-04-16T14:12:37;21.70;38.30
30148;DHT22;16960;49.404;8.248;2023-04-16T14:15:05;21.70;38.20
30148;DHT22;16960;49.404;8.248;2023-04-16T14:17:34;21.80;38.20
30148;DHT22;16960;49.404;8.248;2023-04-16T14:20:01;21.80;38.80
30148;DHT22;16960;49.404;8.248;2023-04-16T14:22:29;21.80;38.10
30148;DHT22;16960;49.404;8.248;2023-04-16T14:24:56;21.80;38.10
30148;DHT22;16960;49.404;8.248;2023-04-16T14:27:25;21.80;38.10
30148;DHT22;16960;49.404;8.248;2023-04-16T14:29:52;21.80;38.10
30148;DHT22;16960;49.404;8.248;2023-04-16T14:32:19;21.90;38.20
30148;DHT22;16960;49.404;8.248;2023-04-16T14:34:46;21.80;38.10
30148;DHT22;16960;49.404;8.248;2023-04-16T14:37:14;21.80;38.30
30148;DHT22;16960;49.404;8.248;2023-04-16T14:39:41;21.80;38.20
30148;DHT22;16960;49.404;8.248;2023-04-16T14:42:08;21.80;38.20
30148;DHT22;16960;49.404;8.248;2023-04-16T14:44:37;21.80;38.10
30148;DHT22;16960;49.404;8.248;2023-04-16T14:47:04;21.80;38.10
30148;DHT22;16960;49.404;8.248;2023-04-16T14:49:33;21.90;38.20
30148;DHT22;16960;49.404;8.248;2023-04-16T14:52:00;21.80;38.20
30148;DHT22;16960;49.404;8.248;2023-04-16T14:54:30;21.80;38.20
30148;DHT22;16960;49.404;8.248;2023-04-16T14:56:57;21.80;38.10
30148;DHT22;16960;49.404;8.248;2023-04-16T14:59:24;21.90;38.20
30148;DHT22;16960;49.404;8.248;2023-04-16T15:01:54;21.90;38.20
30148;DHT22;16960;49.404;8.248;2023-04-16T15:04:21;21.90;38.20
30148;DHT22;16960;49.404;8.248;2023-04-16T15:06:48;21.90;38.20
30148;DHT22;16960;49.404;8.248;2023-04-16T15:09:16;21.90;38.20
30148;DHT22;16960;49.404;8.248;2023-04-16T15:11:43;21.90;38.20
30148;DHT22;16960;49.404;8.248;2023-04-16T15:14:10;21.90;38.20
30148;DHT22;16960;49.404;8.248;2023-04-16T15:16:37;21.90;38.10
30148;DHT22;16960;49.404;8.248;2023-04-16T15:19:05;21.90;38.10
30148;DHT22;16960;49.404;8.248;2023-04-16T15:21:32;21.80;38.00
30148;DHT22;16960;49.404;8.248;2023-04-16T15:23:59;21.90;38.10
30148;DHT22;16960;49.404;8.248;2023-04-16T15:26:26;21.90;38.10
30148;DHT22;16960;49.404;8.248;2023-04-16T15:28:53;21.90;38.00
30148;DHT22;16960;49.404;8.248;2023-04-16T15:31:20;21.90;38.00
30148;DHT22;16960;49.404;8.248;2023-04-16T15:33:47;21.90;38.00